Time;durP1;ratioP1;P1;durP2;ratioP2;P2;SDS_P1;SDS_P2;PMS_P1;PMS_P2;Temp;Humidity;BMP_temperature;BMP_pressure;BME280_temperature;BME280_humidity;BME280_pressure;Samples;Min_cycle;Max_cycle;Signal;HPM_P1;HPM_P2
2023/05/30 00:02:07;;;;;;;18.48;3.90;;;10.80;99.90;;;;;;5022296;28;20088;-81
2023/05/30 00:04:32;;;;;;;14.60;3.30;;;10.80;99.90;;;;;;5044205;28;20056;-83
2023/05/30 00:06:58;;;;;;;13.68;3.13;;;10.80;99.90;;;;;;5031976;28;20041;-82
2023/05/30 00:09:24;;;;;;;16.17;2.80;;;10.80;99.90;;;;;;5012399;28;20041;-82
2023/05/30 00:11:49;;;;;;;12.07;3.25;;;10.80;99.90;;;;;;5030839;28;20133;-81
2023/05/30 00:14:20;;;;;;;14.48;2.92;;;10.80;99.90;;;;;;5015223;28;20048;-82
2023/05/30 00:16:46;;;;;;;11.70;3.05;;;10.80;99.90;;;;;;5013318;28;20090;-82
2023/05/30 00:19:13;;;;;;;12.30;2.88;;;10.80;99.90;;;;;;5015687;28;20064;-82
2023/05/30 00:21:39;;;;;;;11.57;2.35;;;10.80;99.90;;;;;;5013376;28;20079;-81
2023/05/30 00:24:05;;;;;;;11.32;2.97;;;10.80;99.90;;;;;;5026001;28;20021;-81
2023/05/30 00:26:32;;;;;;;10.45;2.38;;;10.80;99.90;;;;;;5030371;28;20085;-81
2023/05/30 00:28:58;;;;;;;11.57;3.00;;;10.80;99.90;;;;;;5048716;28;20045;-80
2023/05/30 00:31:24;;;;;;;14.77;3.38;;;10.80;99.90;;;;;;5015531;28;20049;-80
2023/05/30 00:33:50;;;;;;;10.80;3.78;;;10.80;99.90;;;;;;5031266;28;20125;-80
2023/05/30 00:36:16;;;;;;;11.15;3.40;;;10.80;99.90;;;;;;5044293;28;20442;-79
2023/05/30 00:38:41;;;;;;;12.35;3.28;;;10.80;99.90;;;;;;5028092;28;20056;-79
2023/05/30 00:41:07;;;;;;;15.40;2.65;;;10.80;99.90;;;;;;5042086;28;20068;-80
2023/05/30 00:43:36;;;;;;;11.18;3.28;;;10.80;99.90;;;;;;5046909;28;20048;-80
2023/05/30 00:46:04;;;;;;;10.85;2.85;;;10.80;99.90;;;;;;5042222;28;20071;-78
2023/05/30 00:48:30;;;;;;;12.05;3.15;;;10.80;99.90;;;;;;5028201;28;20042;-79
2023/05/30 00:50:56;;;;;;;10.02;3.03;;;10.80;99.90;;;;;;5028340;28;20037;-79
2023/05/30 00:53:23;;;;;;;13.02;3.25;;;10.80;99.90;;;;;;5027911;28;20104;-79
2023/05/30 00:55:49;;;;;;;12.45;3.28;;;10.80;99.90;;;;;;5025700;28;20037;-80
2023/05/30 00:58:16;;;;;;;12.07;3.58;;;10.80;99.90;;;;;;5047160;28;20037;-79
2023/05/30 01:00:41;;;;;;;14.55;3.83;;;10.80;99.90;;;;;;5021766;28;20037;-81
2023/05/30 01:03:08;;;;;;;16.40;3.70;;;10.80;99.90;;;;;;5012759;28;20433;-83
2023/05/30 01:05:35;;;;;;;17.10;4.15;;;10.80;99.90;;;;;;5013124;28;20041;-82
2023/05/30 01:08:01;;;;;;;12.50;3.53;;;10.80;99.90;;;;;;5033195;28;20045;-82
2023/05/30 01:10:30;;;;;;;13.60;3.40;;;10.80;99.90;;;;;;5015677;28;20045;-82
2023/05/30 01:13:05;;;;;;;14.57;4.03;;;10.80;99.90;;;;;;5032287;28;20056;-80
2023/05/30 01:15:41;;;;;;;13.90;3.53;;;10.80;99.90;;;;;;5027201;28;20119;-81
2023/05/30 01:18:42;;;;;;;11.75;3.25;;;10.80;99.90;;;;;;5032602;28;20041;-79
2023/05/30 01:21:10;;;;;;;8.90;3.35;;;10.80;99.90;;;;;;5032106;28;20053;-80
2023/05/30 01:24:02;;;;;;;12.27;5.13;;;10.80;99.90;;;;;;5022353;28;20037;-79
2023/05/30 01:26:45;;;;;;;14.00;4.00;;;10.80;99.90;;;;;;5035342;28;20048;-81
2023/05/30 01:29:17;;;;;;;13.20;4.15;;;10.80;99.90;;;;;;5035903;28;20069;-78
2023/05/30 01:31:44;;;;;;;15.15;4.15;;;10.80;99.90;;;;;;5018469;28;20037;-78
2023/05/30 01:34:11;;;;;;;13.52;3.20;;;10.80;99.90;;;;;;5021439;28;20560;-79
2023/05/30 01:36:37;;;;;;;14.18;3.50;;;10.80;99.90;;;;;;5020659;28;20045;-79
2023/05/30 01:39:03;;;;;;;10.20;2.58;;;10.80;99.90;;;;;;5024394;28;20053;-78
2023/05/30 01:42:21;;;;;;;13.07;3.30;;;10.80;99.90;;;;;;5025142;28;20049;-78
2023/05/30 01:45:08;;;;;;;9.63;3.78;;;10.80;99.90;;;;;;5021222;28;20046;-79
2023/05/30 01:47:58;;;;;;;12.27;2.92;;;10.80;99.90;;;;;;5039673;28;20037;-80
2023/05/30 01:50:37;;;;;;;10.55;3.17;;;10.80;99.90;;;;;;5023682;28;20038;-79
2023/05/30 01:53:09;;;;;;;13.60;3.78;;;10.80;99.90;;;;;;5038977;28;20084;-79
2023/05/30 01:55:37;;;;;;;12.20;3.47;;;10.80;99.90;;;;;;5033479;28;20470;-79
2023/05/30 01:58:05;;;;;;;9.75;2.88;;;10.80;99.90;;;;;;5020064;28;20128;-81
2023/05/30 02:00:31;;;;;;;15.18;3.15;;;10.80;99.90;;;;;;5018764;28;20038;-81
2023/05/30 02:02:57;;;;;;;15.20;3.80;;;10.90;99.90;;;;;;5020114;28;20041;-82
2023/05/30 02:05:23;;;;;;;12.82;3.00;;;10.80;99.90;;;;;;5033867;28;20056;-82
2023/05/30 02:07:49;;;;;;;7.10;2.33;;;10.80;99.90;;;;;;5018560;28;20411;-81
2023/05/30 02:10:15;;;;;;;12.65;3.25;;;10.80;99.90;;;;;;5016220;28;20045;-82
2023/05/30 02:12:41;;;;;;;10.48;3.05;;;10.80;99.90;;;;;;5017628;28;20038;-82
2023/05/30 02:15:07;;;;;;;9.35;2.90;;;10.90;99.90;;;;;;5034536;28;20537;-82
2023/05/30 02:17:33;;;;;;;12.68;3.15;;;10.90;99.90;;;;;;5017005;28;20037;-81
2023/05/30 02:19:59;;;;;;;10.73;3.13;;;10.80;99.90;;;;;;5030948;28;20037;-81
2023/05/30 02:22:25;;;;;;;12.20;2.72;;;10.80;99.90;;;;;;5018750;28;20124;-81
2023/05/30 02:24:52;;;;;;;8.75;2.28;;;10.80;99.90;;;;;;5017156;28;20359;-80
2023/05/30 02:27:20;;;;;;;11.02;2.58;;;10.80;99.90;;;;;;5033366;28;20037;-81
2023/05/30 02:29:46;;;;;;;11.98;2.50;;;10.80;99.90;;;;;;5022681;28;20103;-80
2023/05/30 02:32:11;;;;;;;10.77;2.90;;;10.80;99.90;;;;;;5022538;28;20049;-78
2023/05/30 02:34:37;;;;;;;14.65;2.95;;;10.80;99.90;;;;;;5022048;28;20069;-79
2023/05/30 02:37:03;;;;;;;11.68;2.78;;;10.70;99.90;;;;;;5031557;28;20068;-78
2023/05/30 02:39:29;;;;;;;14.52;3.17;;;10.70;99.90;;;;;;5029070;28;20080;-79
2023/05/30 02:41:55;;;;;;;13.85;3.17;;;10.70;99.90;;;;;;5052295;28;20030;-79
2023/05/30 02:44:21;;;;;;;9.05;3.13;;;10.70;99.90;;;;;;5047849;28;20105;-78
2023/05/30 02:46:46;;;;;;;12.00;3.15;;;10.70;99.90;;;;;;5046767;28;20404;-78
2023/05/30 02:49:12;;;;;;;11.38;3.00;;;10.70;99.90;;;;;;5028549;28;20053;-80
2023/05/30 02:51:40;;;;;;;9.73;2.85;;;10.60;99.90;;;;;;5041990;28;20041;-79
2023/05/30 02:54:06;;;;;;;11.27;3.00;;;10.60;99.90;;;;;;5029843;28;20040;-79
2023/05/30 02:56:31;;;;;;;18.40;4.28;;;10.60;99.90;;;;;;5048298;28;20030;-80
2023/05/30 02:58:59;;;;;;;9.32;3.55;;;10.60;99.90;;;;;;5029543;28;20037;-78
2023/05/30 03:01:24;;;;;;;11.70;2.47;;;10.60;99.90;;;;;;5029120;28;20043;-78
2023/05/30 03:03:50;;;;;;;14.25;4.15;;;10.70;99.90;;;;;;5044908;28;20485;-79
2023/05/30 03:06:18;;;;;;;14.15;3.22;;;10.60;99.90;;;;;;5044995;28;20116;-79
2023/05/30 03:08:44;;;;;;;10.73;2.80;;;10.60;99.90;;;;;;5047177;28;20052;-79
2023/05/30 03:11:11;;;;;;;10.60;3.30;;;10.60;99.90;;;;;;5045150;28;20069;-80
2023/05/30 03:13:37;;;;;;;10.07;3.58;;;10.60;99.90;;;;;;5028563;28;20042;-78
2023/05/30 03:16:04;;;;;;;10.98;2.88;;;10.60;99.90;;;;;;5046666;28;20434;-78
2023/05/30 03:18:30;;;;;;;12.85;3.63;;;10.70;99.90;;;;;;5043273;28;20045;-78
2023/05/30 03:20:56;;;;;;;13.63;3.22;;;10.70;99.90;;;;;;5044378;28;20040;-78
2023/05/30 03:23:21;;;;;;;11.23;2.78;;;10.70;99.90;;;;;;5045665;28;20036;-79
2023/05/30 03:25:47;;;;;;;10.30;3.13;;;10.70;99.90;;;;;;5046433;28;20041;-80
2023/05/30 03:28:13;;;;;;;14.57;3.55;;;10.70;99.90;;;;;;5046612;28;20152;-80
2023/05/30 03:30:39;;;;;;;10.63;3.33;;;10.70;99.90;;;;;;5037802;28;20405;-81
2023/05/30 03:33:05;;;;;;;16.17;3.85;;;10.70;99.90;;;;;;5032961;28;20077;-81
2023/05/30 03:35:31;;;;;;;11.77;3.25;;;10.80;99.90;;;;;;5032955;28;20081;-81
2023/05/30 03:37:57;;;;;;;11.95;3.25;;;10.80;99.90;;;;;;5016786;28;20037;-82
2023/05/30 03:40:22;;;;;;;16.65;3.78;;;10.80;99.90;;;;;;5015057;28;20030;-81
2023/05/30 03:42:50;;;;;;;12.07;3.65;;;10.80;99.90;;;;;;5016271;28;20041;-81
2023/05/30 03:45:15;;;;;;;10.27;3.60;;;10.80;99.90;;;;;;5017335;28;20508;-81
2023/05/30 03:47:41;;;;;;;11.30;3.28;;;10.80;99.90;;;;;;5015877;28;20042;-82
2023/05/30 03:50:07;;;;;;;11.30;3.67;;;10.90;99.90;;;;;;5033189;28;20045;-81
2023/05/30 03:52:34;;;;;;;14.90;3.72;;;10.90;99.90;;;;;;5031969;28;20037;-81
2023/05/30 03:55:00;;;;;;;15.82;4.00;;;10.90;99.90;;;;;;5034429;28;20493;-81
2023/05/30 03:57:26;;;;;;;13.98;3.65;;;10.90;99.90;;;;;;5015842;28;20033;-81
2023/05/30 03:59:51;;;;;;;11.00;2.95;;;10.90;99.90;;;;;;5017144;28;20033;-81
2023/05/30 04:02:17;;;;;;;9.68;3.10;;;11.00;99.90;;;;;;5033894;28;20104;-81
2023/05/30 04:04:46;;;;;;;15.90;3.10;;;11.00;99.90;;;;;;5015329;28;20048;-80
2023/05/30 04:07:11;;;;;;;10.55;3.05;;;11.00;99.90;;;;;;5017903;28;20065;-81
2023/05/30 04:09:37;;;;;;;12.95;3.67;;;11.00;99.90;;;;;;5039633;28;20037;-78
2023/05/30 04:12:06;;;;;;;16.13;3.67;;;11.00;99.90;;;;;;5028360;28;20037;-78
2023/05/30 04:14:32;;;;;;;14.40;3.90;;;11.10;99.90;;;;;;5044912;28;20038;-79
2023/05/30 04:16:58;;;;;;;14.25;3.20;;;11.10;99.90;;;;;;5026327;28;20030;-79
2023/05/30 04:19:24;;;;;;;11.23;3.25;;;11.10;99.90;;;;;;5043695;28;20466;-78
2023/05/30 04:21:49;;;;;;;11.50;3.28;;;11.10;99.90;;;;;;5044626;28;20038;-78
2023/05/30 04:24:15;;;;;;;10.88;3.63;;;11.20;99.90;;;;;;5028613;28;20047;-78
2023/05/30 04:26:41;;;;;;;14.82;3.65;;;11.20;99.90;;;;;;5044015;28;20068;-78
2023/05/30 04:29:08;;;;;;;12.25;3.60;;;11.30;99.90;;;;;;5044486;28;20045;-78
2023/05/30 04:31:34;;;;;;;10.20;3.15;;;11.30;99.90;;;;;;5044026;28;20056;-78
2023/05/30 04:34:00;;;;;;;14.25;3.50;;;11.30;99.90;;;;;;5041563;28;20033;-78
2023/05/30 04:36:27;;;;;;;11.98;3.38;;;11.30;99.90;;;;;;5026240;28;20049;-80
2023/05/30 04:38:53;;;;;;;11.48;3.47;;;11.30;99.90;;;;;;5035420;28;20037;-81
2023/05/30 04:41:24;;;;;;;12.80;3.85;;;11.30;99.90;;;;;;5013713;28;20046;-81
2023/05/30 04:44:00;;;;;;;15.98;4.07;;;11.40;99.90;;;;;;5032221;28;20045;-80
2023/05/30 04:46:29;;;;;;;13.75;3.50;;;11.40;99.90;;;;;;5021614;28;20041;-78
2023/05/30 04:49:00;;;;;;;16.08;3.35;;;11.40;99.90;;;;;;5025658;28;20069;-80
2023/05/30 04:51:26;;;;;;;12.75;3.58;;;11.50;99.90;;;;;;5042815;28;20042;-78
2023/05/30 04:53:52;;;;;;;14.15;3.92;;;11.50;99.90;;;;;;5026134;28;20044;-77
2023/05/30 04:56:22;;;;;;;11.38;2.55;;;11.50;99.90;;;;;;5037824;28;20041;-82
2023/05/30 04:58:51;;;;;;;12.65;3.08;;;11.50;99.90;;;;;;5015387;28;20033;-81
2023/05/30 05:01:19;;;;;;;11.85;2.95;;;11.50;99.90;;;;;;5031986;28;20048;-81
2023/05/30 05:03:45;;;;;;;15.02;3.70;;;11.50;99.90;;;;;;5013273;28;20033;-81
2023/05/30 05:06:11;;;;;;;9.40;2.95;;;11.50;99.90;;;;;;5033192;28;20091;-81
2023/05/30 05:08:38;;;;;;;12.30;3.15;;;11.60;99.90;;;;;;5033285;28;20125;-81
2023/05/30 05:11:05;;;;;;;10.00;3.03;;;11.50;99.90;;;;;;5016153;28;20044;-82
2023/05/30 05:13:32;;;;;;;13.93;3.20;;;11.50;99.90;;;;;;4998719;28;20076;-81
2023/05/30 05:15:58;;;;;;;14.52;3.25;;;11.60;99.90;;;;;;5015279;28;20045;-81
2023/05/30 05:18:24;;;;;;;12.45;3.15;;;11.60;99.90;;;;;;5013352;28;20473;-81
2023/05/30 05:20:50;;;;;;;11.90;3.47;;;11.60;99.90;;;;;;5030393;28;20045;-81
2023/05/30 05:23:16;;;;;;;15.57;4.07;;;11.70;99.90;;;;;;5015524;28;20038;-80
2023/05/30 05:25:42;;;;;;;11.20;3.17;;;11.70;99.90;;;;;;5031172;28;20378;-80
2023/05/30 05:28:08;;;;;;;12.45;3.58;;;11.80;99.90;;;;;;5030785;28;20057;-81
2023/05/30 05:30:34;;;;;;;14.38;3.67;;;11.80;99.90;;;;;;5032722;28;20488;-80
2023/05/30 05:33:00;;;;;;;13.88;4.03;;;11.90;99.90;;;;;;5030140;28;20041;-80
2023/05/30 05:35:26;;;;;;;9.52;3.08;;;11.90;99.90;;;;;;5014539;28;20101;-81
2023/05/30 05:37:52;;;;;;;12.88;3.38;;;12.00;99.90;;;;;;5012364;28;20052;-81
2023/05/30 05:40:18;;;;;;;16.35;3.40;;;12.00;99.90;;;;;;5030881;28;20041;-81
2023/05/30 05:42:44;;;;;;;9.27;3.05;;;12.00;99.90;;;;;;5031762;28;20500;-81
2023/05/30 05:45:10;;;;;;;15.70;3.85;;;12.10;99.90;;;;;;5030359;28;20021;-80
2023/05/30 05:47:36;;;;;;;16.30;3.72;;;12.10;99.90;;;;;;5011682;28;20504;-81
2023/05/30 05:50:03;;;;;;;11.07;3.08;;;12.20;99.90;;;;;;5014843;28;20040;-80
2023/05/30 05:52:28;;;;;;;11.82;3.03;;;12.30;99.90;;;;;;5021475;28;20044;-78
2023/05/30 05:54:54;;;;;;;11.60;2.72;;;12.30;99.90;;;;;;5021438;28;20061;-79
2023/05/30 05:57:20;;;;;;;20.13;4.00;;;12.30;99.90;;;;;;5037417;28;20044;-77
2023/05/30 05:59:45;;;;;;;13.10;3.40;;;12.40;99.90;;;;;;5038422;28;20029;-81
2023/05/30 06:02:12;;;;;;;9.95;3.00;;;12.40;99.90;;;;;;5011173;28;20708;-80
2023/05/30 06:04:38;;;;;;;12.57;3.40;;;12.50;99.90;;;;;;5027208;28;20034;-81
2023/05/30 06:07:05;;;;;;;16.67;3.75;;;12.50;99.90;;;;;;5029189;28;20038;-81
2023/05/30 06:09:31;;;;;;;12.60;2.63;;;12.50;99.90;;;;;;5013267;28;20563;-81
2023/05/30 06:11:58;;;;;;;8.27;3.13;;;12.50;99.90;;;;;;5009176;28;20473;-82
2023/05/30 06:14:23;;;;;;;12.27;2.97;;;12.50;99.90;;;;;;5029191;28;20507;-81
2023/05/30 06:16:49;;;;;;;11.88;3.47;;;12.50;99.90;;;;;;5014534;28;20049;-77
2023/05/30 06:19:16;;;;;;;11.60;2.60;;;12.50;99.90;;;;;;5025083;28;20106;-79
2023/05/30 06:21:42;;;;;;;9.95;2.90;;;12.50;99.90;;;;;;5027391;28;20699;-81
2023/05/30 06:24:08;;;;;;;8.65;2.70;;;12.50;99.90;;;;;;5034650;28;20041;-81
2023/05/30 06:26:34;;;;;;;11.00;3.00;;;12.50;99.90;;;;;;5019437;28;20051;-83
2023/05/30 06:29:03;;;;;;;8.82;2.97;;;12.50;99.90;;;;;;5033895;28;20434;-81
2023/05/30 06:31:28;;;;;;;9.70;2.45;;;12.40;99.90;;;;;;5015403;28;20069;-81
2023/05/30 06:33:54;;;;;;;10.20;2.90;;;12.40;99.90;;;;;;5020143;28;20045;-78
2023/05/30 06:36:20;;;;;;;14.10;3.47;;;12.40;99.90;;;;;;5019312;28;20132;-79
2023/05/30 06:38:46;;;;;;;10.10;2.75;;;12.40;99.90;;;;;;5018008;28;20413;-78
2023/05/30 06:41:12;;;;;;;11.15;2.78;;;12.30;99.90;;;;;;5020438;28;20049;-81
2023/05/30 06:43:37;;;;;;;6.30;2.10;;;12.40;99.90;;;;;;5017870;28;20482;-78
2023/05/30 06:46:04;;;;;;;9.00;1.95;;;12.20;99.90;;;;;;5020009;28;20053;-78
2023/05/30 06:48:29;;;;;;;10.25;2.60;;;12.30;99.90;;;;;;5032862;28;20053;-79
2023/05/30 06:50:55;;;;;;;8.60;2.28;;;12.20;99.90;;;;;;5035083;28;20042;-79
2023/05/30 06:53:21;;;;;;;8.98;2.28;;;12.20;99.90;;;;;;5035228;28;20045;-78
2023/05/30 06:55:47;;;;;;;11.23;2.58;;;12.20;99.90;;;;;;5020447;28;20071;-81
2023/05/30 06:58:13;;;;;;;9.70;2.63;;;12.20;99.90;;;;;;5037205;28;20462;-79
2023/05/30 07:00:39;;;;;;;8.98;2.90;;;12.10;99.90;;;;;;5004238;28;20521;-80
2023/05/30 07:03:07;;;;;;;9.75;2.50;;;12.10;99.90;;;;;;5018504;28;20038;-80
2023/05/30 07:05:32;;;;;;;9.98;3.03;;;12.10;99.90;;;;;;5035652;28;20631;-80
2023/05/30 07:07:58;;;;;;;10.02;2.67;;;12.10;99.90;;;;;;5048503;28;20048;-79
2023/05/30 07:10:25;;;;;;;7.50;2.42;;;12.20;99.90;;;;;;5034155;28;20053;-79
2023/05/30 07:12:52;;;;;;;9.85;2.00;;;12.10;99.90;;;;;;5049540;28;20612;-80
2023/05/30 07:15:18;;;;;;;8.10;2.05;;;12.10;99.90;;;;;;5034447;28;20067;-78
2023/05/30 07:17:44;;;;;;;7.05;2.10;;;12.10;99.90;;;;;;5050305;28;20067;-81
2023/05/30 07:20:10;;;;;;;5.47;1.73;;;12.10;99.90;;;;;;5030947;28;20049;-79
2023/05/30 07:22:38;;;;;;;8.55;1.90;;;12.10;99.90;;;;;;5049306;28;20120;-79
2023/05/30 07:25:05;;;;;;;5.97;1.90;;;12.10;99.90;;;;;;5048265;28;20045;-78
2023/05/30 07:27:31;;;;;;;8.93;2.33;;;12.20;99.90;;;;;;5033509;28;20041;-79
2023/05/30 07:29:57;;;;;;;7.65;2.47;;;12.30;99.90;;;;;;5025710;28;20179;-79
2023/05/30 07:32:22;;;;;;;8.10;2.85;;;12.40;99.90;;;;;;5050565;28;20199;-79
2023/05/30 07:34:48;;;;;;;9.00;2.70;;;12.30;99.90;;;;;;5038386;28;20099;-79
2023/05/30 07:37:14;;;;;;;9.88;2.92;;;12.40;99.90;;;;;;5049143;28;20505;-79
2023/05/30 07:39:40;;;;;;;5.70;2.45;;;12.40;99.90;;;;;;5049155;28;20107;-79
2023/05/30 07:42:07;;;;;;;6.28;1.92;;;12.40;99.90;;;;;;5049686;28;20041;-79
2023/05/30 07:44:33;;;;;;;5.85;2.05;;;12.40;99.90;;;;;;5047502;28;20187;-80
2023/05/30 07:46:58;;;;;;;8.32;2.50;;;12.30;99.90;;;;;;5030599;28;20050;-80
2023/05/30 07:49:25;;;;;;;7.07;2.40;;;12.30;99.90;;;;;;5047867;28;20109;-78
2023/05/30 07:51:51;;;;;;;7.75;2.40;;;12.30;99.90;;;;;;5030592;28;20072;-78
2023/05/30 07:54:16;;;;;;;6.45;2.42;;;12.30;99.90;;;;;;5030312;28;20045;-78
2023/05/30 07:56:42;;;;;;;8.15;2.30;;;12.30;99.90;;;;;;5048684;28;20037;-79
2023/05/30 07:59:08;;;;;;;7.70;2.35;;;12.30;99.90;;;;;;5032571;28;20037;-80
2023/05/30 08:01:33;;;;;;;7.57;2.40;;;12.30;99.90;;;;;;5047898;28;20041;-80
2023/05/30 08:04:00;;;;;;;5.88;1.88;;;12.30;99.90;;;;;;5032120;28;20052;-79
2023/05/30 08:06:25;;;;;;;5.63;2.03;;;12.30;99.90;;;;;;5031575;28;20045;-78
2023/05/30 08:08:51;;;;;;;6.40;1.85;;;12.30;99.90;;;;;;5031367;28;20049;-79
2023/05/30 08:11:19;;;;;;;5.10;2.20;;;12.30;99.90;;;;;;5047968;28;20072;-78
2023/05/30 08:13:45;;;;;;;5.65;2.15;;;12.30;99.90;;;;;;5016463;28;20128;-79
2023/05/30 08:16:11;;;;;;;4.88;1.70;;;12.40;99.90;;;;;;5047981;28;20041;-80
2023/05/30 08:18:37;;;;;;;6.07;1.85;;;12.50;99.90;;;;;;5030739;28;20037;-78
2023/05/30 08:21:03;;;;;;;8.20;1.60;;;12.60;99.90;;;;;;5047540;28;20045;-79
2023/05/30 08:23:29;;;;;;;3.60;1.30;;;12.70;99.90;;;;;;5031042;28;20104;-79
2023/05/30 08:25:58;;;;;;;4.15;1.58;;;12.70;99.90;;;;;;5031536;28;20038;-79
2023/05/30 08:28:24;;;;;;;5.70;1.48;;;12.70;99.90;;;;;;5046536;28;20025;-79
2023/05/30 08:30:51;;;;;;;4.53;1.33;;;12.70;99.90;;;;;;5032212;28;20038;-78
2023/05/30 08:33:17;;;;;;;3.15;1.17;;;12.80;99.90;;;;;;5048513;28;20037;-80
2023/05/30 08:35:45;;;;;;;3.38;1.20;;;12.70;99.90;;;;;;5028887;28;20128;-80
2023/05/30 08:38:12;;;;;;;5.10;1.38;;;12.80;99.90;;;;;;5031748;28;20050;-79
2023/05/30 08:40:45;;;;;;;2.88;1.23;;;12.90;99.90;;;;;;5047255;28;20037;-79
2023/05/30 08:43:11;;;;;;;1.93;0.83;;;13.00;99.90;;;;;;5031204;28;20132;-78
2023/05/30 08:45:38;;;;;;;4.00;1.15;;;13.10;99.90;;;;;;5046725;28;20041;-79
2023/05/30 08:48:05;;;;;;;5.70;1.20;;;13.10;99.90;;;;;;5025604;28;20052;-79
2023/05/30 08:50:33;;;;;;;3.55;1.27;;;13.00;99.90;;;;;;5033475;28;20072;-78
2023/05/30 08:53:08;;;;;;;7.00;1.45;;;13.10;99.90;;;;;;5032393;28;20528;-78
2023/05/30 08:55:40;;;;;;;2.90;1.20;;;13.10;99.90;;;;;;5041383;28;20034;-80
2023/05/30 08:58:09;;;;;;;2.83;1.10;;;13.10;99.90;;;;;;5047631;28;20038;-78
2023/05/30 09:00:38;;;;;;;2.55;1.40;;;13.10;99.90;;;;;;5031173;28;20045;-79
2023/05/30 09:03:08;;;;;;;4.57;1.50;;;13.20;99.90;;;;;;5044762;28;20041;-80
2023/05/30 09:05:35;;;;;;;3.88;1.30;;;13.20;99.90;;;;;;5046915;28;20056;-79
2023/05/30 09:08:02;;;;;;;3.35;1.27;;;13.30;99.90;;;;;;5032620;28;20045;-79
2023/05/30 09:10:29;;;;;;;3.28;1.23;;;13.40;99.90;;;;;;5028986;28;20045;-78
2023/05/30 09:12:57;;;;;;;2.88;1.23;;;13.50;99.90;;;;;;5031284;28;20064;-79
2023/05/30 09:15:23;;;;;;;4.25;1.35;;;13.60;99.90;;;;;;5023572;28;20467;-79
2023/05/30 09:17:49;;;;;;;2.45;1.33;;;13.70;99.90;;;;;;5017479;28;20037;-79
2023/05/30 09:20:18;;;;;;;3.45;1.42;;;13.70;99.90;;;;;;5032487;28;20566;-82
2023/05/30 09:22:47;;;;;;;2.67;1.10;;;13.80;99.90;;;;;;5017293;28;20387;-82
2023/05/30 09:25:17;;;;;;;3.67;1.25;;;13.80;99.90;;;;;;5014752;28;20049;-82
2023/05/30 09:27:50;;;;;;;3.30;1.33;;;13.80;99.90;;;;;;5017946;28;20428;-82
2023/05/30 09:30:17;;;;;;;3.35;1.27;;;13.80;99.90;;;;;;5016507;28;20131;-82
2023/05/30 09:33:00;;;;;;;5.07;1.38;;;13.80;99.90;;;;;;5032167;28;20045;-82
2023/05/30 09:35:26;;;;;;;6.03;1.83;;;13.80;99.90;;;;;;5016756;28;20058;-81
2023/05/30 09:37:52;;;;;;;4.05;1.45;;;13.80;99.90;;;;;;5018101;28;20351;-81
2023/05/30 09:40:17;;;;;;;2.97;1.35;;;13.80;99.90;;;;;;5030139;28;20049;-80
2023/05/30 09:42:49;;;;;;;4.30;1.30;;;13.80;99.90;;;;;;5018031;28;20041;-80
2023/05/30 09:45:20;;;;;;;5.15;1.70;;;13.80;99.90;;;;;;5017511;28;20669;-79
2023/05/30 09:47:47;;;;;;;5.63;1.45;;;13.70;99.90;;;;;;5016736;28;20753;-79
2023/05/30 09:50:15;;;;;;;5.22;1.50;;;13.80;99.90;;;;;;5017012;28;20582;-80
2023/05/30 09:52:42;;;;;;;2.88;1.10;;;13.90;99.90;;;;;;5034646;28;20125;-79
2023/05/30 09:55:09;;;;;;;3.40;1.27;;;14.00;99.90;;;;;;5031207;28;20080;-79
2023/05/30 09:57:37;;;;;;;3.30;1.20;;;14.00;99.90;;;;;;5036329;28;20099;-78
2023/05/30 10:00:11;;;;;;;3.20;1.17;;;14.00;99.90;;;;;;5033362;28;20052;-79
2023/05/30 10:02:45;;;;;;;2.67;1.23;;;14.00;99.90;;;;;;5036884;28;20152;-78
2023/05/30 10:05:20;;;;;;;2.35;0.98;;;14.10;99.90;;;;;;5029079;28;20304;-79
2023/05/30 10:07:50;;;;;;;3.17;1.45;;;14.10;99.90;;;;;;5020727;28;20041;-79
2023/05/30 10:10:17;;;;;;;3.35;1.17;;;14.00;99.90;;;;;;5018738;28;20135;-79
2023/05/30 10:12:48;;;;;;;6.03;1.98;;;14.10;99.90;;;;;;5019914;28;20063;-79
2023/05/30 10:15:15;;;;;;;2.97;1.50;;;14.10;99.90;;;;;;5034981;28;20686;-79
2023/05/30 10:17:55;;;;;;;2.58;1.40;;;14.10;99.90;;;;;;5036860;28;20083;-79
2023/05/30 10:20:24;;;;;;;2.58;1.30;;;14.20;99.90;;;;;;5035746;28;20045;-80
2023/05/30 10:22:54;;;;;;;3.15;1.10;;;14.20;99.90;;;;;;5039016;28;20060;-79
2023/05/30 10:25:21;;;;;;;3.67;1.23;;;14.10;99.90;;;;;;5033303;28;20049;-81
2023/05/30 10:27:53;;;;;;;2.67;1.48;;;14.20;99.90;;;;;;5022991;28;20053;-79
2023/05/30 10:30:26;;;;;;;2.47;1.30;;;14.20;99.90;;;;;;5017759;28;20048;-79
2023/05/30 10:33:13;;;;;;;2.95;1.20;;;14.10;99.90;;;;;;5037288;28;20582;-80
2023/05/30 10:35:42;;;;;;;4.38;1.00;;;14.30;99.90;;;;;;5018790;28;20065;-80
2023/05/30 10:38:11;;;;;;;4.90;1.00;;;14.30;99.90;;;;;;5021988;28;20049;-79
2023/05/30 10:40:44;;;;;;;2.63;1.10;;;14.40;99.90;;;;;;5035820;28;20040;-80
2023/05/30 10:43:31;;;;;;;1.83;1.00;;;14.30;99.90;;;;;;5021054;28;20060;-79
2023/05/30 10:46:09;;;;;;;2.70;0.95;;;14.30;99.90;;;;;;5016714;28;20037;-79
2023/05/30 10:48:50;;;;;;;3.65;1.17;;;14.20;99.90;;;;;;5021268;28;20426;-81
2023/05/30 10:51:16;;;;;;;1.33;0.80;;;14.40;99.90;;;;;;5020622;28;20041;-80
2023/05/30 10:53:47;;;;;;;1.70;0.80;;;14.40;99.90;;;;;;5021646;28;20046;-79
2023/05/30 10:56:39;;;;;;;2.53;0.98;;;14.60;99.90;;;;;;5018730;28;20552;-79
2023/05/30 10:59:18;;;;;;;2.13;0.93;;;14.70;99.90;;;;;;5036043;28;20037;-80
2023/05/30 11:02:05;;;;;;;3.22;0.90;;;14.70;99.90;;;;;;5036754;28;20519;-79
2023/05/30 11:04:48;;;;;;;2.50;0.75;;;14.70;99.90;;;;;;5018603;28;20072;-79
2023/05/30 11:07:14;;;;;;;1.05;0.43;;;14.60;99.90;;;;;;5034746;28;20363;-79
2023/05/30 11:09:41;;;;;;;2.97;0.60;;;14.60;99.90;;;;;;5036226;28;20100;-79
2023/05/30 11:12:10;;;;;;;1.27;0.65;;;14.60;99.90;;;;;;5035606;28;20045;-80
2023/05/30 11:14:36;;;;;;;2.83;0.98;;;14.70;99.90;;;;;;5018745;28;20045;-79
2023/05/30 11:17:06;;;;;;;1.95;1.20;;;14.80;99.90;;;;;;5019234;28;20038;-80
2023/05/30 11:19:39;;;;;;;5.60;2.00;;;15.00;99.90;;;;;;5037518;28;20116;-80
2023/05/30 11:22:17;;;;;;;3.13;1.33;;;15.00;99.90;;;;;;5063858;28;20140;-83
2023/05/30 11:24:45;;;;;;;1.88;0.60;;;15.00;99.90;;;;;;5031662;28;20025;-80
2023/05/30 11:27:20;;;;;;;1.42;0.50;;;15.00;99.90;;;;;;5053581;28;20108;-79
2023/05/30 11:29:51;;;;;;;2.15;0.60;;;15.10;99.90;;;;;;5035845;28;20046;-79
2023/05/30 11:32:20;;;;;;;4.03;0.75;;;15.10;99.90;;;;;;5035075;28;20130;-80
2023/05/30 11:34:56;;;;;;;3.25;0.80;;;15.10;99.90;;;;;;5030867;28;20052;-80
2023/05/30 11:37:22;;;;;;;1.10;0.60;;;15.20;99.90;;;;;;5051392;28;20045;-78
2023/05/30 11:39:54;;;;;;;1.25;0.50;;;15.10;99.90;;;;;;5049748;28;20049;-79
2023/05/30 11:42:20;;;;;;;1.10;0.57;;;15.10;99.90;;;;;;5034433;28;20046;-80
2023/05/30 11:44:46;;;;;;;1.77;0.50;;;15.20;99.90;;;;;;5033057;28;20105;-80
2023/05/30 11:47:14;;;;;;;1.30;0.45;;;15.10;99.90;;;;;;5051677;28;20087;-78
2023/05/30 11:49:41;;;;;;;2.20;0.50;;;15.10;99.90;;;;;;5046111;28;20304;-79
2023/05/30 11:52:07;;;;;;;2.70;0.98;;;15.20;99.90;;;;;;5052444;28;20519;-78
2023/05/30 11:54:34;;;;;;;1.42;0.63;;;15.20;99.90;;;;;;5034455;28;20095;-79
2023/05/30 11:57:01;;;;;;;2.47;0.80;;;15.10;99.90;;;;;;5034038;28;20056;-80
2023/05/30 11:59:27;;;;;;;1.23;0.60;;;15.20;99.90;;;;;;5052442;28;20068;-79
2023/05/30 12:01:58;;;;;;;1.35;0.60;;;15.30;99.90;;;;;;5051754;28;20041;-80
2023/05/30 12:04:31;;;;;;;3.42;0.70;;;15.30;99.90;;;;;;5029531;28;20033;-82
2023/05/30 12:07:02;;;;;;;0.97;0.60;;;15.30;99.90;;;;;;5033937;28;20098;-80
2023/05/30 12:09:29;;;;;;;1.77;0.70;;;15.30;99.90;;;;;;5027439;28;20097;-80
2023/05/30 12:11:57;;;;;;;1.20;0.50;;;15.40;99.90;;;;;;5050263;28;20037;-80
2023/05/30 12:14:39;;;;;;;3.13;0.75;;;15.40;99.90;;;;;;5051023;28;20042;-79
2023/05/30 12:17:12;;;;;;;1.88;1.00;;;15.40;99.90;;;;;;5051312;28;20133;-80
2023/05/30 12:19:44;;;;;;;1.88;0.77;;;15.30;99.90;;;;;;5030879;28;20518;-79
2023/05/30 12:22:20;;;;;;;3.20;1.00;;;15.30;99.90;;;;;;5034078;28;20067;-80
2023/05/30 12:24:47;;;;;;;1.58;0.73;;;15.20;99.90;;;;;;5033555;28;20022;-79
2023/05/30 12:27:17;;;;;;;1.10;0.70;;;15.10;99.90;;;;;;5058455;28;20072;-80
2023/05/30 12:29:44;;;;;;;1.70;0.80;;;14.90;99.90;;;;;;5026252;28;20041;-82
2023/05/30 12:32:13;;;;;;;2.40;0.90;;;14.90;99.90;;;;;;5031193;28;20128;-82
2023/05/30 12:34:42;;;;;;;1.65;0.90;;;14.90;99.90;;;;;;5014761;28;20061;-82
2023/05/30 12:37:16;;;;;;;3.03;0.70;;;15.00;99.90;;;;;;5029953;28;20088;-81
2023/05/30 12:39:56;;;;;;;2.17;0.98;;;14.90;99.90;;;;;;5016599;28;20037;-79
2023/05/30 12:42:32;;;;;;;1.98;0.65;;;14.90;99.90;;;;;;5035100;28;20517;-79
2023/05/30 12:45:00;;;;;;;1.75;0.70;;;14.90;99.90;;;;;;5034790;28;20033;-79
2023/05/30 12:47:27;;;;;;;1.10;0.55;;;14.90;99.90;;;;;;5019912;28;20118;-81
2023/05/30 12:49:54;;;;;;;1.10;0.57;;;14.80;99.90;;;;;;5033799;28;20489;-79